sensor_id;sensor_type;location;lat;lon;timestamp;pressure;altitude;pressure_sealevel;temperature;humidity
55171;BME280;41060;47.510;8.680;2023-04-07T00:00:23;97099.00;;;12.54;35.75
55171;BME280;41060;47.510;8.680;2023-04-07T00:02:51;97096.13;;;12.67;35.92
55171;BME280;41060;47.510;8.680;2023-04-07T00:05:17;97095.44;;;12.75;34.88
55171;BME280;41060;47.510;8.680;2023-04-07T00:07:46;97091.69;;;12.87;34.49
55171;BME280;41060;47.510;8.680;2023-04-07T00:10:13;97054.00;;;12.62;34.65
55171;BME280;41060;47.510;8.680;2023-04-07T00:12:39;97096.84;;;12.79;34.78
55171;BME280;41060;47.510;8.680;2023-04-07T00:15:08;97094.19;;;12.79;34.75
55171;BME280;41060;47.510;8.680;2023-04-07T00:17:35;97089.03;;;12.87;34.32
55171;BME280;41060;47.510;8.680;2023-04-07T00:20:02;97093.53;;;12.96;34.17
55171;BME280;41060;47.510;8.680;2023-04-07T00:22:30;97079.28;;;12.97;34.61
55171;BME280;41060;47.510;8.680;2023-04-07T00:24:58;97075.66;;;12.98;34.29
55171;BME280;41060;47.510;8.680;2023-04-07T00:27:24;97071.16;;;12.98;34.35
55171;BME280;41060;47.510;8.680;2023-04-07T00:29:54;97052.97;;;12.94;34.19
55171;BME280;41060;47.510;8.680;2023-04-07T00:32:21;97067.97;;;13.05;34.66
55171;BME280;41060;47.510;8.680;2023-04-07T00:34:47;97057.22;;;13.06;33.96
55171;BME280;41060;47.510;8.680;2023-04-07T00:37:14;97054.13;;;13.11;33.58
55171;BME280;41060;47.510;8.680;2023-04-07T00:39:41;97038.00;;;13.02;33.47
55171;BME280;41060;47.510;8.680;2023-04-07T00:42:09;97039.81;;;13.02;33.92
55171;BME280;41060;47.510;8.680;2023-04-07T00:44:36;97039.94;;;13.00;34.44
55171;BME280;41060;47.510;8.680;2023-04-07T00:47:03;97031.97;;;13.00;34.52
55171;BME280;41060;47.510;8.680;2023-04-07T00:49:29;97029.09;;;13.03;34.55
55171;BME280;41060;47.510;8.680;2023-04-07T00:51:57;97023.63;;;13.05;33.92
55171;BME280;41060;47.510;8.680;2023-04-07T00:54:24;97020.13;;;13.05;33.93
55171;BME280;41060;47.510;8.680;2023-04-07T00:56:51;97021.22;;;13.02;34.19
55171;BME280;41060;47.510;8.680;2023-04-07T00:59:20;97016.84;;;12.91;34.80
55171;BME280;41060;47.510;8.680;2023-04-07T01:01:52;97011.81;;;12.79;35.17
55171;BME280;41060;47.510;8.680;2023-04-07T01:04:26;97022.97;;;12.53;35.48
55171;BME280;41060;47.510;8.680;2023-04-07T01:07:00;97012.44;;;12.42;36.04
55171;BME280;41060;47.510;8.680;2023-04-07T01:09:36;97016.47;;;12.27;36.29
55171;BME280;41060;47.510;8.680;2023-04-07T01:12:09;97008.75;;;12.14;36.43
55171;BME280;41060;47.510;8.680;2023-04-07T01:14:45;96974.47;;;11.81;37.81
55171;BME280;41060;47.510;8.680;2023-04-07T01:17:14;97007.13;;;11.93;38.00
55171;BME280;41060;47.510;8.680;2023-04-07T01:19:45;97009.53;;;12.05;37.89
55171;BME280;41060;47.510;8.680;2023-04-07T01:22:15;97003.13;;;12.08;37.78
55171;BME280;41060;47.510;8.680;2023-04-07T01:27:42;97000.78;;;12.14;37.62
55171;BME280;41060;47.510;8.680;2023-04-07T01:30:18;96995.84;;;12.00;37.76
55171;BME280;41060;47.510;8.680;2023-04-07T01:32:49;97001.31;;;12.08;37.76
55171;BME280;41060;47.510;8.680;2023-04-07T01:35:18;96994.03;;;12.10;37.57
55171;BME280;41060;47.510;8.680;2023-04-07T01:37:46;96991.25;;;12.12;37.84
55171;BME280;41060;47.510;8.680;2023-04-07T01:40:15;96993.31;;;11.99;37.90
55171;BME280;41060;47.510;8.680;2023-04-07T01:42:43;96996.50;;;11.93;37.92
55171;BME280;41060;47.510;8.680;2023-04-07T01:45:11;96976.03;;;11.83;37.68
55171;BME280;41060;47.510;8.680;2023-04-07T01:47:40;96990.69;;;11.87;37.56
55171;BME280;41060;47.510;8.680;2023-04-07T01:50:08;96994.44;;;11.75;37.92
55171;BME280;41060;47.510;8.680;2023-04-07T01:52:36;96990.63;;;11.68;38.06
55171;BME280;41060;47.510;8.680;2023-04-07T01:55:03;96987.19;;;11.77;38.18
55171;BME280;41060;47.510;8.680;2023-04-07T01:57:31;96990.94;;;11.75;37.90
55171;BME280;41060;47.510;8.680;2023-04-07T01:59:58;96981.56;;;11.71;38.07
55171;BME280;41060;47.510;8.680;2023-04-07T02:02:24;96982.72;;;11.78;37.92
55171;BME280;41060;47.510;8.680;2023-04-07T02:04:54;96978.31;;;11.88;38.20
55171;BME280;41060;47.510;8.680;2023-04-07T02:07:27;96974.69;;;11.89;38.53
55171;BME280;41060;47.510;8.680;2023-04-07T02:09:57;96975.03;;;12.05;37.98
55171;BME280;41060;47.510;8.680;2023-04-07T02:12:27;96969.19;;;12.02;38.23
55171;BME280;41060;47.510;8.680;2023-04-07T02:14:56;96969.44;;;11.99;38.36
55171;BME280;41060;47.510;8.680;2023-04-07T02:17:25;96962.00;;;11.93;38.12
55171;BME280;41060;47.510;8.680;2023-04-07T02:19:54;96964.66;;;11.93;38.02
55171;BME280;41060;47.510;8.680;2023-04-07T02:22:24;96964.81;;;11.70;39.17
55171;BME280;41060;47.510;8.680;2023-04-07T02:24:51;96962.41;;;11.58;38.60
55171;BME280;41060;47.510;8.680;2023-04-07T02:27:17;96953.72;;;11.56;38.76
55171;BME280;41060;47.510;8.680;2023-04-07T02:29:45;96949.31;;;11.45;39.28
55171;BME280;41060;47.510;8.680;2023-04-07T02:32:11;96952.59;;;11.28;40.19
55171;BME280;41060;47.510;8.680;2023-04-07T02:34:38;96946.94;;;11.21;40.27
55171;BME280;41060;47.510;8.680;2023-04-07T02:37:06;96944.50;;;11.29;40.50
55171;BME280;41060;47.510;8.680;2023-04-07T02:39:36;96941.97;;;11.48;39.68
55171;BME280;41060;47.510;8.680;2023-04-07T02:42:02;96938.59;;;11.46;39.95
55171;BME280;41060;47.510;8.680;2023-04-07T02:44:30;96879.50;;;11.04;39.65
55171;BME280;41060;47.510;8.680;2023-04-07T02:46:56;96937.81;;;11.56;39.00
55171;BME280;41060;47.510;8.680;2023-04-07T02:49:22;96933.72;;;11.52;38.32
55171;BME280;41060;47.510;8.680;2023-04-07T02:51:50;96933.34;;;11.56;38.38
55171;BME280;41060;47.510;8.680;2023-04-07T02:54:17;96939.34;;;11.58;38.64
55171;BME280;41060;47.510;8.680;2023-04-07T02:56:44;96935.06;;;11.67;38.07
55171;BME280;41060;47.510;8.680;2023-04-07T02:59:14;96923.66;;;11.76;38.02
55171;BME280;41060;47.510;8.680;2023-04-07T03:01:40;96919.50;;;11.83;37.67
55171;BME280;41060;47.510;8.680;2023-04-07T03:04:07;96918.84;;;11.91;37.50
55171;BME280;41060;47.510;8.680;2023-04-07T03:06:34;96915.78;;;11.95;37.57
55171;BME280;41060;47.510;8.680;2023-04-07T03:09:00;96906.44;;;11.91;37.81
55171;BME280;41060;47.510;8.680;2023-04-07T03:11:28;96898.69;;;11.78;38.34
55171;BME280;41060;47.510;8.680;2023-04-07T03:13:55;96892.53;;;11.78;38.08
55171;BME280;41060;47.510;8.680;2023-04-07T03:16:22;96891.81;;;11.76;38.13
55171;BME280;41060;47.510;8.680;2023-04-07T03:18:48;96886.38;;;11.77;37.88
55171;BME280;41060;47.510;8.680;2023-04-07T03:21:16;96887.38;;;11.76;37.90
55171;BME280;41060;47.510;8.680;2023-04-07T03:23:42;96869.59;;;11.67;38.11
55171;BME280;41060;47.510;8.680;2023-04-07T03:26:12;96884.00;;;11.74;37.77
55171;BME280;41060;47.510;8.680;2023-04-07T03:28:40;96875.75;;;11.68;36.87
55171;BME280;41060;47.510;8.680;2023-04-07T03:31:06;96880.75;;;11.61;37.59
55171;BME280;41060;47.510;8.680;2023-04-07T03:33:33;96876.41;;;11.30;37.31
55171;BME280;41060;47.510;8.680;2023-04-07T03:36:03;96887.56;;;11.24;37.55
55171;BME280;41060;47.510;8.680;2023-04-07T03:38:30;96877.78;;;11.24;37.39
55171;BME280;41060;47.510;8.680;2023-04-07T03:40:56;96883.50;;;11.20;37.21
55171;BME280;41060;47.510;8.680;2023-04-07T03:43:23;96886.00;;;11.21;37.61
55171;BME280;41060;47.510;8.680;2023-04-07T03:45:52;96880.28;;;10.95;38.88
55171;BME280;41060;47.510;8.680;2023-04-07T03:48:19;96883.81;;;10.85;39.65
55171;BME280;41060;47.510;8.680;2023-04-07T03:50:46;96877.44;;;10.87;39.00
55171;BME280;41060;47.510;8.680;2023-04-07T03:53:13;96886.91;;;10.69;38.37
55171;BME280;41060;47.510;8.680;2023-04-07T03:55:41;96852.72;;;10.45;39.03
55171;BME280;41060;47.510;8.680;2023-04-07T03:58:08;96851.56;;;10.38;39.01
55171;BME280;41060;47.510;8.680;2023-04-07T04:00:35;96874.69;;;10.57;39.24
55171;BME280;41060;47.510;8.680;2023-04-07T04:03:03;96875.22;;;10.71;39.32
55171;BME280;41060;47.510;8.680;2023-04-07T04:05:32;96880.81;;;10.68;39.51
55171;BME280;41060;47.510;8.680;2023-04-07T04:07:59;96875.84;;;10.75;39.51
55171;BME280;41060;47.510;8.680;2023-04-07T04:10:25;96870.84;;;10.82;39.65
55171;BME280;41060;47.510;8.680;2023-04-07T04:12:53;96869.50;;;10.87;39.43
55171;BME280;41060;47.510;8.680;2023-04-07T04:15:19;96865.47;;;10.93;39.66
55171;BME280;41060;47.510;8.680;2023-04-07T04:17:46;96871.19;;;10.88;39.62
55171;BME280;41060;47.510;8.680;2023-04-07T04:20:14;96864.66;;;10.71;39.94
55171;BME280;41060;47.510;8.680;2023-04-07T04:22:41;96844.81;;;10.66;39.86
55171;BME280;41060;47.510;8.680;2023-04-07T04:25:08;96872.34;;;10.95;39.64
55171;BME280;41060;47.510;8.680;2023-04-07T04:27:35;96831.38;;;10.79;38.51
55171;BME280;41060;47.510;8.680;2023-04-07T04:30:02;96866.13;;;11.06;38.01
55171;BME280;41060;47.510;8.680;2023-04-07T04:32:28;96863.41;;;10.96;38.02
55171;BME280;41060;47.510;8.680;2023-04-07T04:34:56;96866.81;;;11.08;37.71
55171;BME280;41060;47.510;8.680;2023-04-07T04:37:23;96854.16;;;11.12;37.97
55171;BME280;41060;47.510;8.680;2023-04-07T04:39:50;96860.63;;;11.19;38.44
55171;BME280;41060;47.510;8.680;2023-04-07T04:42:19;96861.88;;;11.24;38.97
55171;BME280;41060;47.510;8.680;2023-04-07T04:44:45;96857.44;;;11.25;39.05
55171;BME280;41060;47.510;8.680;2023-04-07T04:47:12;96855.34;;;11.28;38.86
55171;BME280;41060;47.510;8.680;2023-04-07T04:49:39;96855.09;;;11.31;38.79
55171;BME280;41060;47.510;8.680;2023-04-07T04:52:06;96851.88;;;11.28;39.01
55171;BME280;41060;47.510;8.680;2023-04-07T04:54:34;96843.94;;;11.28;38.73
55171;BME280;41060;47.510;8.680;2023-04-07T04:57:01;96837.47;;;11.21;38.81
55171;BME280;41060;47.510;8.680;2023-04-07T04:59:27;96835.09;;;11.18;38.98
55171;BME280;41060;47.510;8.680;2023-04-07T05:01:54;96832.44;;;11.18;38.54
55171;BME280;41060;47.510;8.680;2023-04-07T05:04:21;96827.56;;;11.23;37.80
55171;BME280;41060;47.510;8.680;2023-04-07T05:06:47;96829.53;;;11.21;37.79
55171;BME280;41060;47.510;8.680;2023-04-07T05:09:14;96813.16;;;11.16;37.64
55171;BME280;41060;47.510;8.680;2023-04-07T05:11:43;96822.09;;;11.15;37.98
55171;BME280;41060;47.510;8.680;2023-04-07T05:14:09;96804.78;;;11.10;37.69
55171;BME280;41060;47.510;8.680;2023-04-07T05:16:36;96815.63;;;11.07;38.31
55171;BME280;41060;47.510;8.680;2023-04-07T05:19:03;96813.81;;;10.98;38.17
55171;BME280;41060;47.510;8.680;2023-04-07T05:21:30;96816.44;;;10.98;38.63
55171;BME280;41060;47.510;8.680;2023-04-07T05:23:56;96814.78;;;10.97;39.06
55171;BME280;41060;47.510;8.680;2023-04-07T05:26:23;96817.25;;;10.68;39.82
55171;BME280;41060;47.510;8.680;2023-04-07T05:28:51;96820.16;;;10.33;40.79
55171;BME280;41060;47.510;8.680;2023-04-07T05:31:18;96807.72;;;10.45;40.42
55171;BME280;41060;47.510;8.680;2023-04-07T05:33:45;96815.94;;;10.63;39.88
55171;BME280;41060;47.510;8.680;2023-04-07T05:36:12;96816.25;;;10.69;39.14
55171;BME280;41060;47.510;8.680;2023-04-07T05:38:38;96826.38;;;10.85;38.44
55171;BME280;41060;47.510;8.680;2023-04-07T05:41:06;96803.88;;;10.91;37.73
55171;BME280;41060;47.510;8.680;2023-04-07T05:43:32;96820.56;;;11.12;37.96
55171;BME280;41060;47.510;8.680;2023-04-07T05:46:00;96818.81;;;11.01;39.29
55171;BME280;41060;47.510;8.680;2023-04-07T05:48:27;96824.56;;;10.76;40.26
55171;BME280;41060;47.510;8.680;2023-04-07T05:50:54;96825.09;;;10.59;40.21
55171;BME280;41060;47.510;8.680;2023-04-07T05:53:21;96818.63;;;10.52;40.42
55171;BME280;41060;47.510;8.680;2023-04-07T05:55:48;96825.41;;;10.45;40.65
55171;BME280;41060;47.510;8.680;2023-04-07T05:58:14;96820.44;;;10.30;42.20
55171;BME280;41060;47.510;8.680;2023-04-07T06:00:41;96824.78;;;10.20;42.70
55171;BME280;41060;47.510;8.680;2023-04-07T06:03:09;96810.16;;;10.16;42.39
55171;BME280;41060;47.510;8.680;2023-04-07T06:05:36;96786.88;;;9.99;42.17
55171;BME280;41060;47.510;8.680;2023-04-07T06:08:08;96820.69;;;10.27;42.40
55171;BME280;41060;47.510;8.680;2023-04-07T06:10:35;96823.22;;;10.50;42.36
55171;BME280;41060;47.510;8.680;2023-04-07T06:13:01;96810.16;;;10.37;42.83
55171;BME280;41060;47.510;8.680;2023-04-07T06:15:28;96822.03;;;10.43;41.85
55171;BME280;41060;47.510;8.680;2023-04-07T06:17:55;96817.16;;;10.59;42.09
55171;BME280;41060;47.510;8.680;2023-04-07T06:20:23;96815.94;;;10.63;42.14
55171;BME280;41060;47.510;8.680;2023-04-07T06:22:52;96813.97;;;10.76;41.03
55171;BME280;41060;47.510;8.680;2023-04-07T06:25:19;96821.50;;;10.81;41.27
55171;BME280;41060;47.510;8.680;2023-04-07T06:27:45;96821.84;;;10.66;41.08
55171;BME280;41060;47.510;8.680;2023-04-07T06:30:13;96826.69;;;10.50;41.89
55171;BME280;41060;47.510;8.680;2023-04-07T06:32:39;96828.50;;;10.29;42.50
55171;BME280;41060;47.510;8.680;2023-04-07T06:35:07;96832.34;;;10.25;43.01
55171;BME280;41060;47.510;8.680;2023-04-07T06:37:35;96828.28;;;10.21;43.75
55171;BME280;41060;47.510;8.680;2023-04-07T06:40:04;96841.41;;;10.22;43.65
55171;BME280;41060;47.510;8.680;2023-04-07T06:42:30;96836.94;;;10.23;43.43
55171;BME280;41060;47.510;8.680;2023-04-07T06:44:57;96840.00;;;10.07;43.84
55171;BME280;41060;47.510;8.680;2023-04-07T06:47:24;96796.19;;;9.93;43.19
55171;BME280;41060;47.510;8.680;2023-04-07T06:49:50;96836.97;;;10.44;43.09
55171;BME280;41060;47.510;8.680;2023-04-07T06:52:17;96836.47;;;10.70;42.01
55171;BME280;41060;47.510;8.680;2023-04-07T06:54:45;96840.88;;;10.81;42.07
55171;BME280;41060;47.510;8.680;2023-04-07T06:57:12;96842.16;;;10.87;41.69
55171;BME280;41060;47.510;8.680;2023-04-07T06:59:41;96832.78;;;11.03;41.60
55171;BME280;41060;47.510;8.680;2023-04-07T07:02:09;96837.97;;;11.05;41.87
55171;BME280;41060;47.510;8.680;2023-04-07T07:04:35;96839.09;;;10.91;40.96
55171;BME280;41060;47.510;8.680;2023-04-07T07:07:02;96833.94;;;11.10;41.02
55171;BME280;41060;47.510;8.680;2023-04-07T07:09:32;96835.13;;;11.27;40.65
55171;BME280;41060;47.510;8.680;2023-04-07T07:12:00;96835.78;;;11.60;44.25
55171;BME280;41060;47.510;8.680;2023-04-07T07:14:28;96836.94;;;12.16;42.59
55171;BME280;41060;47.510;8.680;2023-04-07T07:16:54;96836.19;;;11.95;39.36
55171;BME280;41060;47.510;8.680;2023-04-07T07:19:21;96835.56;;;11.72;41.19
55171;BME280;41060;47.510;8.680;2023-04-07T07:21:48;96842.34;;;12.05;40.70
55171;BME280;41060;47.510;8.680;2023-04-07T07:24:14;96835.94;;;12.56;41.02
55171;BME280;41060;47.510;8.680;2023-04-07T07:26:41;96838.56;;;13.04;39.82
55171;BME280;41060;47.510;8.680;2023-04-07T07:29:12;96840.25;;;13.42;38.63
55171;BME280;41060;47.510;8.680;2023-04-07T07:31:39;96833.41;;;13.67;38.17
55171;BME280;41060;47.510;8.680;2023-04-07T07:34:05;96839.31;;;13.61;37.60
55171;BME280;41060;47.510;8.680;2023-04-07T07:36:32;96836.16;;;13.01;38.43
55171;BME280;41060;47.510;8.680;2023-04-07T07:38:59;96839.56;;;12.74;38.96
55171;BME280;41060;47.510;8.680;2023-04-07T07:41:26;96838.72;;;12.83;38.21
55171;BME280;41060;47.510;8.680;2023-04-07T07:43:53;96841.38;;;12.74;38.00
55171;BME280;41060;47.510;8.680;2023-04-07T07:46:22;96839.03;;;12.42;37.97
55171;BME280;41060;47.510;8.680;2023-04-07T07:48:50;96842.66;;;12.21;39.43
55171;BME280;41060;47.510;8.680;2023-04-07T07:51:17;96839.50;;;11.78;39.52
55171;BME280;41060;47.510;8.680;2023-04-07T07:53:44;96830.19;;;11.53;40.75
55171;BME280;41060;47.510;8.680;2023-04-07T07:56:10;96839.19;;;11.81;40.33
55171;BME280;41060;47.510;8.680;2023-04-07T07:58:38;96842.91;;;11.49;41.13
55171;BME280;41060;47.510;8.680;2023-04-07T08:01:04;96849.66;;;11.33;41.42
55171;BME280;41060;47.510;8.680;2023-04-07T08:03:32;96843.69;;;11.40;41.20
55171;BME280;41060;47.510;8.680;2023-04-07T08:05:59;96851.16;;;11.66;40.60
55171;BME280;41060;47.510;8.680;2023-04-07T08:08:26;96844.25;;;11.84;40.61
55171;BME280;41060;47.510;8.680;2023-04-07T08:10:52;96853.25;;;12.02;40.31
55171;BME280;41060;47.510;8.680;2023-04-07T08:13:20;96860.09;;;12.05;40.38
55171;BME280;41060;47.510;8.680;2023-04-07T08:15:46;96854.91;;;11.94;39.29
55171;BME280;41060;47.510;8.680;2023-04-07T08:18:16;96857.84;;;11.91;39.15
55171;BME280;41060;47.510;8.680;2023-04-07T08:20:45;96859.97;;;12.06;38.92
55171;BME280;41060;47.510;8.680;2023-04-07T08:23:11;96873.09;;;12.08;38.78
55171;BME280;41060;47.510;8.680;2023-04-07T08:25:38;96849.09;;;12.09;38.20
55171;BME280;41060;47.510;8.680;2023-04-07T08:28:05;96870.16;;;12.20;37.93
55171;BME280;41060;47.510;8.680;2023-04-07T08:30:32;96868.88;;;12.05;39.14
55171;BME280;41060;47.510;8.680;2023-04-07T08:32:58;96873.09;;;12.08;39.03
55171;BME280;41060;47.510;8.680;2023-04-07T08:35:26;96869.53;;;11.88;38.91
55171;BME280;41060;47.510;8.680;2023-04-07T08:37:54;96872.53;;;11.64;39.56
55171;BME280;41060;47.510;8.680;2023-04-07T08:40:20;96879.78;;;11.62;39.80
55171;BME280;41060;47.510;8.680;2023-04-07T08:42:48;96883.66;;;11.58;40.54
55171;BME280;41060;47.510;8.680;2023-04-07T08:45:16;96889.94;;;11.57;40.39
55171;BME280;41060;47.510;8.680;2023-04-07T08:47:43;96887.97;;;11.59;40.98
55171;BME280;41060;47.510;8.680;2023-04-07T08:50:16;96883.28;;;11.63;40.42
55171;BME280;41060;47.510;8.680;2023-04-07T08:52:44;96890.56;;;11.70;39.47
55171;BME280;41060;47.510;8.680;2023-04-07T08:55:13;96885.31;;;11.49;39.81
55171;BME280;41060;47.510;8.680;2023-04-07T08:57:40;96896.97;;;11.68;39.41
55171;BME280;41060;47.510;8.680;2023-04-07T09:00:08;96887.19;;;11.68;40.43
55171;BME280;41060;47.510;8.680;2023-04-07T09:02:37;96896.88;;;11.48;40.91
55171;BME280;41060;47.510;8.680;2023-04-07T09:05:06;96886.75;;;11.63;40.87
55171;BME280;41060;47.510;8.680;2023-04-07T09:07:35;96898.84;;;11.86;40.60
55171;BME280;41060;47.510;8.680;2023-04-07T09:10:03;96899.81;;;11.85;40.73
55171;BME280;41060;47.510;8.680;2023-04-07T09:12:32;96903.09;;;11.68;40.53
55171;BME280;41060;47.510;8.680;2023-04-07T09:14:59;96897.31;;;11.54;41.76
55171;BME280;41060;47.510;8.680;2023-04-07T09:17:27;96905.88;;;11.57;41.97
55171;BME280;41060;47.510;8.680;2023-04-07T09:19:55;96900.16;;;11.62;41.75
55171;BME280;41060;47.510;8.680;2023-04-07T09:22:34;96897.09;;;11.66;41.50
55171;BME280;41060;47.510;8.680;2023-04-07T09:25:10;96899.31;;;11.61;40.45
55171;BME280;41060;47.510;8.680;2023-04-07T09:27:38;96900.19;;;11.71;40.83
55171;BME280;41060;47.510;8.680;2023-04-07T09:30:10;96899.78;;;11.76;39.86
55171;BME280;41060;47.510;8.680;2023-04-07T09:32:38;96901.59;;;11.75;39.73
55171;BME280;41060;47.510;8.680;2023-04-07T09:35:06;96900.22;;;11.81;39.97
55171;BME280;41060;47.510;8.680;2023-04-07T09:37:33;96899.84;;;11.95;40.50
55171;BME280;41060;47.510;8.680;2023-04-07T09:40:00;96885.25;;;11.70;40.26
55171;BME280;41060;47.510;8.680;2023-04-07T09:42:27;96904.63;;;11.61;40.74
55171;BME280;41060;47.510;8.680;2023-04-07T09:44:57;96903.09;;;11.68;41.29
55171;BME280;41060;47.510;8.680;2023-04-07T09:47:25;96915.16;;;11.82;41.03
55171;BME280;41060;47.510;8.680;2023-04-07T09:49:54;96910.09;;;12.00;40.77
55171;BME280;41060;47.510;8.680;2023-04-07T09:52:23;96906.34;;;12.12;40.85
55171;BME280;41060;47.510;8.680;2023-04-07T09:54:50;96908.72;;;12.15;40.74
55171;BME280;41060;47.510;8.680;2023-04-07T09:57:19;96905.31;;;11.94;40.59
55171;BME280;41060;47.510;8.680;2023-04-07T09:59:47;96915.66;;;11.97;40.91
55171;BME280;41060;47.510;8.680;2023-04-07T10:02:15;96916.78;;;11.64;41.54
55171;BME280;41060;47.510;8.680;2023-04-07T10:04:43;96915.97;;;11.22;43.41
55171;BME280;41060;47.510;8.680;2023-04-07T10:07:09;96923.94;;;11.42;43.58
55171;BME280;41060;47.510;8.680;2023-04-07T10:09:36;96921.28;;;11.22;44.12
55171;BME280;41060;47.510;8.680;2023-04-07T10:12:03;96923.09;;;11.00;45.15
55171;BME280;41060;47.510;8.680;2023-04-07T10:14:32;96909.47;;;10.84;45.18
55171;BME280;41060;47.510;8.680;2023-04-07T10:17:02;96934.38;;;10.61;45.78
55171;BME280;41060;47.510;8.680;2023-04-07T10:19:32;96913.03;;;10.62;45.57
55171;BME280;41060;47.510;8.680;2023-04-07T10:22:02;96932.16;;;10.98;45.76
55171;BME280;41060;47.510;8.680;2023-04-07T10:24:43;96936.03;;;10.73;46.09
55171;BME280;41060;47.510;8.680;2023-04-07T10:27:15;96932.75;;;10.38;46.63
55171;BME280;41060;47.510;8.680;2023-04-07T10:29:45;96943.69;;;10.33;46.58
55171;BME280;41060;47.510;8.680;2023-04-07T10:32:14;96931.63;;;10.51;46.94
55171;BME280;41060;47.510;8.680;2023-04-07T10:34:58;96937.31;;;10.79;46.23
55171;BME280;41060;47.510;8.680;2023-04-07T10:37:26;96940.38;;;10.63;46.14
55171;BME280;41060;47.510;8.680;2023-04-07T10:40:27;96932.19;;;10.55;46.39
55171;BME280;41060;47.510;8.680;2023-04-07T10:42:54;96936.16;;;10.17;47.17
55171;BME280;41060;47.510;8.680;2023-04-07T10:45:53;96936.75;;;10.21;46.81
55171;BME280;41060;47.510;8.680;2023-04-07T10:48:25;96944.03;;;9.85;47.94
55171;BME280;41060;47.510;8.680;2023-04-07T10:51:17;96910.75;;;9.94;47.83
55171;BME280;41060;47.510;8.680;2023-04-07T10:54:18;96934.66;;;10.47;46.43
55171;BME280;41060;47.510;8.680;2023-04-07T10:57:08;96942.94;;;9.88;47.27
55171;BME280;41060;47.510;8.680;2023-04-07T10:59:37;96943.34;;;10.26;46.58
55171;BME280;41060;47.510;8.680;2023-04-07T11:02:32;96947.28;;;9.89;47.49
55171;BME280;41060;47.510;8.680;2023-04-07T11:04:59;96946.66;;;9.97;47.13
55171;BME280;41060;47.510;8.680;2023-04-07T11:07:45;96936.16;;;10.28;46.65
55171;BME280;41060;47.510;8.680;2023-04-07T11:10:14;96942.25;;;9.86;47.42
55171;BME280;41060;47.510;8.680;2023-04-07T11:12:43;96948.34;;;10.09;47.45
55171;BME280;41060;47.510;8.680;2023-04-07T11:15:19;96936.75;;;10.21;46.55
55171;BME280;41060;47.510;8.680;2023-04-07T11:18:09;96945.66;;;10.20;46.50
55171;BME280;41060;47.510;8.680;2023-04-07T11:20:41;96938.00;;;10.17;46.84
55171;BME280;41060;47.510;8.680;2023-04-07T11:23:10;96949.00;;;10.33;46.26
55171;BME280;41060;47.510;8.680;2023-04-07T11:25:37;96950.44;;;10.37;46.13
55171;BME280;41060;47.510;8.680;2023-04-07T11:28:04;96951.13;;;10.50;45.78
55171;BME280;41060;47.510;8.680;2023-04-07T11:30:31;96964.94;;;10.65;45.43
55171;BME280;41060;47.510;8.680;2023-04-07T11:32:59;96955.53;;;10.72;44.88
55171;BME280;41060;47.510;8.680;2023-04-07T11:35:26;96990.75;;;10.29;45.41
55171;BME280;41060;47.510;8.680;2023-04-07T11:37:59;96960.25;;;9.59;46.85
55171;BME280;41060;47.510;8.680;2023-04-07T11:40:33;96980.34;;;9.50;47.29
55171;BME280;41060;47.510;8.680;2023-04-07T11:43:01;96955.03;;;9.24;47.71
55171;BME280;41060;47.510;8.680;2023-04-07T11:45:28;96977.00;;;9.13;47.85
55171;BME280;41060;47.510;8.680;2023-04-07T11:47:55;96958.16;;;9.17;47.68
55171;BME280;41060;47.510;8.680;2023-04-07T11:50:38;96975.28;;;9.58;47.17
55171;BME280;41060;47.510;8.680;2023-04-07T11:53:05;96987.19;;;9.64;46.95
55171;BME280;41060;47.510;8.680;2023-04-07T11:55:34;96985.84;;;9.58;47.32
55171;BME280;41060;47.510;8.680;2023-04-07T11:58:05;96982.84;;;9.96;46.80
55171;BME280;41060;47.510;8.680;2023-04-07T12:00:34;96945.59;;;9.66;46.60
55171;BME280;41060;47.510;8.680;2023-04-07T12:03:09;96992.72;;;9.83;46.82
55171;BME280;41060;47.510;8.680;2023-04-07T12:05:43;96994.75;;;9.90;47.31
55171;BME280;41060;47.510;8.680;2023-04-07T12:08:09;97000.25;;;10.10;47.67
55171;BME280;41060;47.510;8.680;2023-04-07T12:10:37;96998.69;;;10.18;47.84
55171;BME280;41060;47.510;8.680;2023-04-07T12:13:07;96976.00;;;9.60;49.50
55171;BME280;41060;47.510;8.680;2023-04-07T12:15:34;96992.59;;;9.84;49.24
55171;BME280;41060;47.510;8.680;2023-04-07T12:18:02;97000.16;;;10.00;49.70
55171;BME280;41060;47.510;8.680;2023-04-07T12:20:32;96996.63;;;10.33;48.91
55171;BME280;41060;47.510;8.680;2023-04-07T12:22:58;96993.50;;;10.39;49.11
55171;BME280;41060;47.510;8.680;2023-04-07T12:25:26;96995.50;;;9.92;49.43
55171;BME280;41060;47.510;8.680;2023-04-07T12:27:54;97005.56;;;9.76;50.38
55171;BME280;41060;47.510;8.680;2023-04-07T12:30:21;97004.00;;;9.74;50.88
55171;BME280;41060;47.510;8.680;2023-04-07T12:32:47;97014.13;;;9.80;50.67
55171;BME280;41060;47.510;8.680;2023-04-07T12:35:15;97011.22;;;9.83;51.08
55171;BME280;41060;47.510;8.680;2023-04-07T12:37:41;97010.69;;;10.33;50.35
55171;BME280;41060;47.510;8.680;2023-04-07T12:40:08;97015.75;;;10.37;50.37
55171;BME280;41060;47.510;8.680;2023-04-07T12:42:35;97013.47;;;10.32;49.91
55171;BME280;41060;47.510;8.680;2023-04-07T12:45:05;97005.56;;;10.21;49.44
55171;BME280;41060;47.510;8.680;2023-04-07T12:47:31;97002.19;;;10.19;49.41
55171;BME280;41060;47.510;8.680;2023-04-07T12:49:59;97019.19;;;9.94;50.33
55171;BME280;41060;47.510;8.680;2023-04-07T12:52:28;97005.69;;;10.19;50.23
55171;BME280;41060;47.510;8.680;2023-04-07T12:54:56;97009.06;;;9.99;49.14
55171;BME280;41060;47.510;8.680;2023-04-07T12:57:24;97009.53;;;10.15;49.81
55171;BME280;41060;47.510;8.680;2023-04-07T12:59:51;97004.78;;;10.41;47.98
55171;BME280;41060;47.510;8.680;2023-04-07T13:02:19;96999.22;;;10.55;49.34
55171;BME280;41060;47.510;8.680;2023-04-07T13:04:47;96998.13;;;10.15;48.73
55171;BME280;41060;47.510;8.680;2023-04-07T13:07:13;97003.03;;;10.19;49.14
55171;BME280;41060;47.510;8.680;2023-04-07T13:09:40;97003.53;;;10.13;50.29